sensor_id;sensor_type;location;lat;lon;timestamp;temperature;humidity
35244;DHT22;37916;52.160;21.066;2022-10-16T00:04:51;14.90;74.70
35244;DHT22;37916;52.160;21.066;2022-10-16T00:14:51;14.90;75.00
35244;DHT22;37916;52.160;21.066;2022-10-16T00:24:52;14.90;75.00
35244;DHT22;37916;52.160;21.066;2022-10-16T00:34:53;14.90;75.90
35244;DHT22;37916;52.160;21.066;2022-10-16T00:44:56;14.80;76.00
35244;DHT22;37916;52.160;21.066;2022-10-16T00:54:58;14.80;77.00
35244;DHT22;37916;52.160;21.066;2022-10-16T01:04:58;14.80;76.80
35244;DHT22;37916;52.160;21.066;2022-10-16T01:15:19;14.80;76.50
35244;DHT22;37916;52.160;21.066;2022-10-16T01:25:39;14.80;76.20
35244;DHT22;37916;52.160;21.066;2022-10-16T01:35:53;14.90;76.00
35244;DHT22;37916;52.160;21.066;2022-10-16T01:45:55;14.80;75.70
35244;DHT22;37916;52.160;21.066;2022-10-16T01:55:58;14.80;75.90
35244;DHT22;37916;52.160;21.066;2022-10-16T02:06:00;14.80;76.20
35244;DHT22;37916;52.160;21.066;2022-10-16T02:16:01;14.70;76.80
35244;DHT22;37916;52.160;21.066;2022-10-16T02:26:05;14.70;76.90
35244;DHT22;37916;52.160;21.066;2022-10-16T02:36:07;14.40;79.30
35244;DHT22;37916;52.160;21.066;2022-10-16T02:46:08;14.30;80.40
35244;DHT22;37916;52.160;21.066;2022-10-16T02:56:09;14.30;79.90
35244;DHT22;37916;52.160;21.066;2022-10-16T03:06:10;14.30;79.80
35244;DHT22;37916;52.160;21.066;2022-10-16T03:16:10;14.30;80.40
35244;DHT22;37916;52.160;21.066;2022-10-16T03:26:11;14.30;80.30
35244;DHT22;37916;52.160;21.066;2022-10-16T03:36:11;14.20;80.30
35244;DHT22;37916;52.160;21.066;2022-10-16T03:46:12;14.20;80.10
35244;DHT22;37916;52.160;21.066;2022-10-16T03:56:13;14.20;80.10
35244;DHT22;37916;52.160;21.066;2022-10-16T04:06:13;14.20;80.30
35244;DHT22;37916;52.160;21.066;2022-10-16T04:16:14;14.10;80.10
35244;DHT22;37916;52.160;21.066;2022-10-16T04:26:15;13.80;80.80
35244;DHT22;37916;52.160;21.066;2022-10-16T04:36:15;13.70;81.00
35244;DHT22;37916;52.160;21.066;2022-10-16T04:46:16;13.70;81.00
35244;DHT22;37916;52.160;21.066;2022-10-16T04:56:17;13.70;80.40
35244;DHT22;37916;52.160;21.066;2022-10-16T05:06:17;13.70;80.20
35244;DHT22;37916;52.160;21.066;2022-10-16T05:16:18;13.70;79.80
35244;DHT22;37916;52.160;21.066;2022-10-16T05:26:19;13.50;80.20
35244;DHT22;37916;52.160;21.066;2022-10-16T05:36:19;13.80;79.70
35244;DHT22;37916;52.160;21.066;2022-10-16T05:46:20;13.80;79.20
35244;DHT22;37916;52.160;21.066;2022-10-16T05:56:21;13.60;79.60
35244;DHT22;37916;52.160;21.066;2022-10-16T06:06:24;13.50;79.80
35244;DHT22;37916;52.160;21.066;2022-10-16T06:16:26;13.50;79.90
35244;DHT22;37916;52.160;21.066;2022-10-16T06:26:28;14.00;79.30
35244;DHT22;37916;52.160;21.066;2022-10-16T06:36:29;14.50;77.00
35244;DHT22;37916;52.160;21.066;2022-10-16T06:46:30;15.30;75.50
35244;DHT22;37916;52.160;21.066;2022-10-16T06:56:32;16.20;73.60
35244;DHT22;37916;52.160;21.066;2022-10-16T07:06:33;17.10;71.50
35244;DHT22;37916;52.160;21.066;2022-10-16T07:16:34;17.30;70.10
35244;DHT22;37916;52.160;21.066;2022-10-16T07:26:36;17.70;69.10
35244;DHT22;37916;52.160;21.066;2022-10-16T07:36:37;17.10;70.10
35244;DHT22;37916;52.160;21.066;2022-10-16T07:46:38;17.60;69.70
35244;DHT22;37916;52.160;21.066;2022-10-16T07:56:38;17.20;69.20
35244;DHT22;37916;52.160;21.066;2022-10-16T08:06:40;18.00;69.60
35244;DHT22;37916;52.160;21.066;2022-10-16T08:16:41;18.50;67.00
35244;DHT22;37916;52.160;21.066;2022-10-16T08:26:41;18.30;67.60
35244;DHT22;37916;52.160;21.066;2022-10-16T08:36:42;18.60;67.00
35244;DHT22;37916;52.160;21.066;2022-10-16T08:57:21;19.20;65.70
35244;DHT22;37916;52.160;21.066;2022-10-16T09:08:30;19.50;64.70
35244;DHT22;37916;52.160;21.066;2022-10-16T09:19:01;19.30;65.20
35244;DHT22;37916;52.160;21.066;2022-10-16T09:29:14;19.50;65.40
35244;DHT22;37916;52.160;21.066;2022-10-16T09:50:27;20.10;64.30
35244;DHT22;37916;52.160;21.066;2022-10-16T10:10:48;20.80;62.30
35244;DHT22;37916;52.160;21.066;2022-10-16T10:21:03;21.00;62.50
35244;DHT22;37916;52.160;21.066;2022-10-16T10:52:33;21.30;61.60
35244;DHT22;37916;52.160;21.066;2022-10-16T11:02:47;21.70;60.60
35244;DHT22;37916;52.160;21.066;2022-10-16T11:13:19;21.60;60.50
35244;DHT22;37916;52.160;21.066;2022-10-16T11:55:02;21.30;61.20
35244;DHT22;37916;52.160;21.066;2022-10-16T12:05:28;21.20;60.70
35244;DHT22;37916;52.160;21.066;2022-10-16T12:15:47;21.30;61.10
35244;DHT22;37916;52.160;21.066;2022-10-16T12:26:12;21.30;60.90
35244;DHT22;37916;52.160;21.066;2022-10-16T12:47:38;21.20;61.90
35244;DHT22;37916;52.160;21.066;2022-10-16T13:29:36;21.50;61.60
35244;DHT22;37916;52.160;21.066;2022-10-16T13:40:11;21.00;62.30
35244;DHT22;37916;52.160;21.066;2022-10-16T14:01:06;20.70;63.80
35244;DHT22;37916;52.160;21.066;2022-10-16T14:22:44;20.70;64.20
35244;DHT22;37916;52.160;21.066;2022-10-16T14:33:19;20.60;65.20
35244;DHT22;37916;52.160;21.066;2022-10-16T14:43:42;20.40;65.70
35244;DHT22;37916;52.160;21.066;2022-10-16T14:53:51;20.40;65.80
35244;DHT22;37916;52.160;21.066;2022-10-16T15:03:59;20.20;65.80
35244;DHT22;37916;52.160;21.066;2022-10-16T15:14:12;20.10;66.40
35244;DHT22;37916;52.160;21.066;2022-10-16T15:24:16;19.90;67.10
35244;DHT22;37916;52.160;21.066;2022-10-16T15:55:28;19.40;68.90
35244;DHT22;37916;52.160;21.066;2022-10-16T16:05:28;19.30;69.50
35244;DHT22;37916;52.160;21.066;2022-10-16T16:15:29;19.20;69.90
35244;DHT22;37916;52.160;21.066;2022-10-16T16:25:30;19.10;70.30
35244;DHT22;37916;52.160;21.066;2022-10-16T16:35:31;19.10;70.60
35244;DHT22;37916;52.160;21.066;2022-10-16T16:45:35;19.00;70.80
35244;DHT22;37916;52.160;21.066;2022-10-16T16:55:36;18.90;71.40
35244;DHT22;37916;52.160;21.066;2022-10-16T17:05:36;18.50;72.40
35244;DHT22;37916;52.160;21.066;2022-10-16T17:15:37;18.20;73.50
35244;DHT22;37916;52.160;21.066;2022-10-16T17:36:01;17.80;75.60
35244;DHT22;37916;52.160;21.066;2022-10-16T18:07:15;17.50;76.80
35244;DHT22;37916;52.160;21.066;2022-10-16T18:17:18;17.60;76.50
35244;DHT22;37916;52.160;21.066;2022-10-16T18:27:20;17.40;76.90
35244;DHT22;37916;52.160;21.066;2022-10-16T18:47:33;17.40;77.20
35244;DHT22;37916;52.160;21.066;2022-10-16T18:57:34;17.30;77.90
35244;DHT22;37916;52.160;21.066;2022-10-16T19:07:35;17.20;78.50
35244;DHT22;37916;52.160;21.066;2022-10-16T19:17:40;17.00;78.60
35244;DHT22;37916;52.160;21.066;2022-10-16T19:27:41;16.70;79.40
35244;DHT22;37916;52.160;21.066;2022-10-16T19:37:44;16.50;79.80
35244;DHT22;37916;52.160;21.066;2022-10-16T19:47:48;16.40;80.70
35244;DHT22;37916;52.160;21.066;2022-10-16T19:57:54;16.10;80.70
35244;DHT22;37916;52.160;21.066;2022-10-16T20:08:03;16.00;81.10
35244;DHT22;37916;52.160;21.066;2022-10-16T20:18:04;15.90;81.90
35244;DHT22;37916;52.160;21.066;2022-10-16T20:28:05;15.80;82.20
35244;DHT22;37916;52.160;21.066;2022-10-16T20:38:07;15.70;82.00
35244;DHT22;37916;52.160;21.066;2022-10-16T20:48:08;15.50;82.20
35244;DHT22;37916;52.160;21.066;2022-10-16T20:58:10;15.40;82.50
35244;DHT22;37916;52.160;21.066;2022-10-16T21:08:12;15.20;82.90
35244;DHT22;37916;52.160;21.066;2022-10-16T21:18:12;15.20;83.10
35244;DHT22;37916;52.160;21.066;2022-10-16T21:28:13;15.10;83.30
35244;DHT22;37916;52.160;21.066;2022-10-16T21:38:16;15.00;83.60
35244;DHT22;37916;52.160;21.066;2022-10-16T21:48:16;14.90;83.60
35244;DHT22;37916;52.160;21.066;2022-10-16T21:58:19;14.80;84.30
35244;DHT22;37916;52.160;21.066;2022-10-16T22:08:23;14.60;84.20
35244;DHT22;37916;52.160;21.066;2022-10-16T22:18:24;14.50;85.00
35244;DHT22;37916;52.160;21.066;2022-10-16T22:28:25;14.40;85.30
35244;DHT22;37916;52.160;21.066;2022-10-16T22:38:28;14.30;85.50
35244;DHT22;37916;52.160;21.066;2022-10-16T22:48:29;14.20;85.70
35244;DHT22;37916;52.160;21.066;2022-10-16T22:58:30;14.10;85.70
35244;DHT22;37916;52.160;21.066;2022-10-16T23:08:31;14.00;85.90
35244;DHT22;37916;52.160;21.066;2022-10-16T23:18:32;13.90;86.20
35244;DHT22;37916;52.160;21.066;2022-10-16T23:28:37;13.70;86.20
35244;DHT22;37916;52.160;21.066;2022-10-16T23:38:38;13.70;86.30
35244;DHT22;37916;52.160;21.066;2022-10-16T23:48:39;13.50;86.20
35244;DHT22;37916;52.160;21.066;2022-10-16T23:58:43;13.50;86.50
